For water level readings from Victoria harbour, visit our Tides page.

DISCLAIMER: Although GVHA takes care to produce accurate readings from Ogden Point, the weather information on this site is raw data fed directly from sensors. It does not go through the same quality control processes used by professional weather services, and should not be relied on as a sole source of weather information for Victoria harbour.

In-depth weather values from Victoria Harbour can be found on the Environment Canada website.

Location: Ogden Point Breakwater

Current time: Dec 6, 2019 4:32 PM GMT | Dec 6, 2019 8:32 AM

Last Hour Last 3 Hours Last 6 Hours Last 12 Hours
Time Peak Wind Speed Avg Speed Avg Direction Avg Air Temp Avg Dew Point Avg Humidity
Dec 6, 2019 08:30 AM 9.7 knots 8.2 knots 3° True 6.8° C / 43.6° F 5.4° C / 40.8° F 90.8%
Dec 6, 2019 08:20 AM 9.3 knots 7.8 knots 4° True 6.8° C / 43.6° F 5.4° C / 40.8° F 90.9%
Dec 6, 2019 08:10 AM 12.8 knots 9 knots 6° True 6.8° C / 43.6° F 5.4° C / 40.8° F 90.8%
Dec 6, 2019 08:00 AM 12.2 knots 9.2 knots 10° True 6.7° C / 43.4° F 5.3° C / 40.6° F 90.8%
Dec 6, 2019 07:50 AM 12.6 knots 10.7 knots 3° True 6.6° C / 43.2° F 5.2° C / 40.4° F 90.9%
Dec 6, 2019 07:40 AM 10.7 knots 7.8 knots 7° True 6.5° C / 43° F 5.1° C / 40.2° F 90.9%
Dec 6, 2019 07:30 AM 11.7 knots 9.1 knots 4° True 6.5° C / 43° F 5° C / 40° F 90.7%
Dec 6, 2019 07:20 AM 11 knots 8.8 knots 12° True 6.4° C / 42.8° F 5° C / 40° F 91.1%
Dec 6, 2019 07:10 AM 12.6 knots 9.5 knots 1° True 6.4° C / 42.8° F 5° C / 40° F 91%
Dec 6, 2019 07:00 AM 12.5 knots 9.8 knots 11° True 6.4° C / 42.8° F 5° C / 40° F 90.7%
Dec 6, 2019 06:50 AM 12.4 knots 10 knots 8° True 6.4° C / 42.8° F 4.9° C / 39.8° F 90.2%
Dec 6, 2019 06:40 AM 11.2 knots 8.7 knots 9° True 6.4° C / 42.8° F 4.8° C / 39.6° F 89.7%
Dec 6, 2019 06:30 AM 8.8 knots 7.2 knots 4° True 6.4° C / 42.8° F 4.8° C / 39.6° F 89.2%
Dec 6, 2019 06:20 AM 10.8 knots 8.1 knots 8° True 6.4° C / 42.8° F 4.8° C / 39.6° F 89.4%
Dec 6, 2019 06:10 AM 9.4 knots 7.5 knots 6° True 6.5° C / 43° F 4.9° C / 39.8° F 90%
Dec 6, 2019 06:00 AM 10.9 knots 9 knots 359° True 6.4° C / 42.8° F 4.9° C / 39.8° F 89.7%
Dec 6, 2019 05:50 AM 12.4 knots 10 knots 357° True 6.4° C / 42.8° F 4.8° C / 39.6° F 89.5%
Dec 6, 2019 05:40 AM 12.8 knots 9.9 knots 359° True 6.4° C / 42.8° F 4.9° C / 39.8° F 90%
Dec 6, 2019 05:30 AM 12.2 knots 10.2 knots 356° True 6.3° C / 42.6° F 4.9° C / 39.8° F 90.2%
Dec 6, 2019 05:20 AM 12.5 knots 10.2 knots 355° True 6.3° C / 42.6° F 4.8° C / 39.6° F 90.1%
Dec 6, 2019 05:10 AM 11.5 knots 9.7 knots 351° True 6.3° C / 42.6° F 4.8° C / 39.6° F 90.2%
Dec 6, 2019 05:00 AM 11.5 knots 9.1 knots 5° True 6.3° C / 42.6° F 4.7° C / 39.4° F 89.8%
Dec 6, 2019 04:50 AM 11.6 knots 9.4 knots 350° True 6.3° C / 42.6° F 4.7° C / 39.4° F 89.5%
Dec 6, 2019 04:40 AM 11.3 knots 9 knots 0° True 6.3° C / 42.6° F 4.7° C / 39.4° F 89.5%
Dec 6, 2019 04:30 AM 10.7 knots 8.5 knots 351° True 6.3° C / 42.6° F 4.7° C / 39.4° F 89.6%
Dec 6, 2019 04:20 AM 8.2 knots 6.5 knots 355° True 6.3° C / 42.6° F 4.8° C / 39.6° F 90.1%
Dec 6, 2019 04:10 AM 9 knots 7.5 knots 9° True 6.3° C / 42.6° F 4.8° C / 39.6° F 90.1%
Dec 6, 2019 04:00 AM 10.6 knots 7.2 knots 8° True 6.2° C / 42.4° F 4.7° C / 39.4° F 89.8%
Dec 6, 2019 03:50 AM 7.2 knots 5.8 knots 12° True 6.2° C / 42.4° F 4.7° C / 39.4° F 89.9%
Dec 6, 2019 03:40 AM 7.2 knots 5.8 knots 2° True 6.2° C / 42.4° F 4.6° C / 39.2° F 89.5%
Dec 6, 2019 03:30 AM 8 knots 6.6 knots 8° True 6.2° C / 42.4° F 4.6° C / 39.2° F 89.7%
Dec 6, 2019 03:20 AM 7.4 knots 6.2 knots 6° True 6.2° C / 42.4° F 4.7° C / 39.4° F 89.9%
Dec 6, 2019 03:10 AM 9.3 knots 7.1 knots 8° True 6.1° C / 42.2° F 4.6° C / 39.2° F 89.7%
Dec 6, 2019 03:00 AM 10.8 knots 8.6 knots 4° True 6.1° C / 42.2° F 4.6° C / 39.2° F 89.6%
Dec 6, 2019 02:50 AM 8.8 knots 6.7 knots 7° True 6.1° C / 42.2° F 4.5° C / 39° F 89.5%
Dec 6, 2019 02:40 AM 9.3 knots 7.9 knots 356° True 6.2° C / 42.4° F 4.5° C / 39° F 89.1%
Dec 6, 2019 02:30 AM 8.7 knots 7.2 knots 347° True 6.2° C / 42.4° F 4.4° C / 38.8° F 88.6%
Dec 6, 2019 02:20 AM 9.5 knots 7.7 knots 348° True 6.2° C / 42.4° F 4.4° C / 38.8° F 88.4%
Dec 6, 2019 02:10 AM 8.8 knots 7.3 knots 348° True 6.1° C / 42.2° F 4.3° C / 38.6° F 88.1%
Dec 6, 2019 02:00 AM 9.4 knots 7.9 knots 356° True 6.2° C / 42.4° F 4.3° C / 38.6° F 88%
Dec 6, 2019 01:50 AM 10.8 knots 9.2 knots 354° True 6.2° C / 42.4° F 4.3° C / 38.6° F 87.7%
Dec 6, 2019 01:40 AM 10 knots 8.3 knots 354° True 6.2° C / 42.4° F 4.3° C / 38.6° F 87.5%
Dec 6, 2019 01:30 AM 9.2 knots 8 knots 355° True 6.3° C / 42.6° F 4.3° C / 38.6° F 87.1%
Dec 6, 2019 01:20 AM 8.8 knots 7.3 knots 354° True 6.3° C / 42.6° F 4.3° C / 38.6° F 86.8%
Dec 6, 2019 01:10 AM 10.5 knots 8 knots 358° True 6.4° C / 42.8° F 4.3° C / 38.6° F 86.2%
Dec 6, 2019 01:00 AM 11.6 knots 7.8 knots 357° True 6.4° C / 42.8° F 4.3° C / 38.6° F 86%
Dec 6, 2019 12:50 AM 11.4 knots 7.7 knots 5° True 6.4° C / 42.8° F 4.2° C / 38.4° F 85.9%
Dec 6, 2019 12:40 AM 10.5 knots 7 knots 13° True 6.4° C / 42.8° F 4.2° C / 38.4° F 86.2%
Dec 6, 2019 12:30 AM 8.7 knots 6.2 knots 8° True 6.3° C / 42.6° F 4.2° C / 38.4° F 85.9%
Dec 6, 2019 12:20 AM 8.2 knots 6.9 knots 4° True 6.4° C / 42.8° F 4.2° C / 38.4° F 85.8%
Dec 6, 2019 12:10 AM 9.1 knots 7.6 knots 357° True 6.4° C / 42.8° F 4.1° C / 38.2° F 85.5%
Dec 6, 2019 12:00 AM 8.9 knots 7.4 knots 2° True 6.4° C / 42.8° F 4.1° C / 38.2° F 85.2%
Dec 5, 2019 11:50 PM 9.4 knots 7.3 knots 358° True 6.5° C / 43° F 4° C / 38° F 84.4%
Dec 5, 2019 11:40 PM 8.2 knots 6.9 knots 1° True 6.6° C / 43.2° F 4° C / 38° F 83.7%
Dec 5, 2019 11:30 PM 8.3 knots 7 knots 356° True 6.6° C / 43.2° F 3.9° C / 37.8° F 82.6%
Dec 5, 2019 11:20 PM 8.5 knots 6.4 knots 6° True 6.6° C / 43.2° F 3.8° C / 37.6° F 82%
Dec 5, 2019 11:10 PM 8.4 knots 7.3 knots 350° True 6.6° C / 43.2° F 3.6° C / 37.2° F 80.9%
Dec 5, 2019 11:00 PM 8.3 knots 6.1 knots 341° True 6.7° C / 43.4° F 3.7° C / 37.4° F 81.4%
Dec 5, 2019 10:50 PM 7.9 knots 6.1 knots 2° True 6.7° C / 43.4° F 3.8° C / 37.6° F 81.6%
Dec 5, 2019 10:40 PM 9.5 knots 7 knots 4° True 6.7° C / 43.4° F 3.8° C / 37.6° F 81.4%
Dec 5, 2019 10:30 PM 10.5 knots 7.7 knots 354° True 6.7° C / 43.4° F 3.7° C / 37.4° F 80.7%
Dec 5, 2019 10:20 PM 8.6 knots 6.4 knots 2° True 6.7° C / 43.4° F 3.6° C / 37.2° F 80.6%
Dec 5, 2019 10:10 PM 7.9 knots 6.3 knots 12° True 6.7° C / 43.4° F 3.7° C / 37.4° F 81%
Dec 5, 2019 10:00 PM 8.2 knots 6.7 knots 354° True 6.7° C / 43.4° F 3.6° C / 37.2° F 80.6%
Dec 5, 2019 09:50 PM 7.9 knots 6.2 knots 343° True 6.7° C / 43.4° F 3.6° C / 37.2° F 80.6%
Dec 5, 2019 09:40 PM 9.3 knots 7.5 knots 4° True 6.7° C / 43.4° F 3.7° C / 37.4° F 81.1%
Dec 5, 2019 09:30 PM 8.8 knots 6.6 knots 10° True 6.7° C / 43.4° F 3.7° C / 37.4° F 81.6%
Dec 5, 2019 09:20 PM 9.5 knots 8 knots 1° True 6.7° C / 43.4° F 3.6° C / 37.2° F 80.9%
Dec 5, 2019 09:10 PM 8.6 knots 7.5 knots 344° True 6.6° C / 43.2° F 3.6° C / 37.2° F 80.9%
Dec 5, 2019 09:00 PM 8.8 knots 7.5 knots 347° True 6.6° C / 43.2° F 3.6° C / 37.2° F 80.9%
Dec 5, 2019 08:50 PM 8.7 knots 7.6 knots 357° True 6.7° C / 43.4° F 3.7° C / 37.4° F 80.9%
Dec 5, 2019 08:40 PM 9.5 knots 7.4 knots 8° True 6.8° C / 43.6° F 3.7° C / 37.4° F 80.7%